createdAt,value
2023-05-02T00:00:00.200Z,0.00
2023-05-02T00:00:59.975Z,0.00
2023-05-02T00:01:59.999Z,0.00
2023-05-02T00:03:00.032Z,0.00
2023-05-02T00:04:00.073Z,0.00
2023-05-02T00:04:59.943Z,0.00
2023-05-02T00:05:59.976Z,0.00
2023-05-02T00:06:59.897Z,0.00
2023-05-02T00:07:59.881Z,0.00
2023-05-02T00:08:59.862Z,0.00
2023-05-02T00:10:00.189Z,0.00
2023-05-02T00:10:59.346Z,0.00
2023-05-02T00:11:59.357Z,0.00
2023-05-02T00:12:59.808Z,0.00
2023-05-02T00:13:59.801Z,0.00
2023-05-02T00:14:59.796Z,0.00
2023-05-02T00:15:59.786Z,0.00
2023-05-02T00:16:59.877Z,0.00
2023-05-02T00:17:59.783Z,0.00
2023-05-02T00:18:59.730Z,0.00
2023-05-02T00:19:59.933Z,0.00
2023-05-02T00:20:59.711Z,0.00
2023-05-02T00:21:59.699Z,0.00
2023-05-02T00:22:59.684Z,0.00
2023-05-02T00:23:59.653Z,0.00
2023-05-02T00:24:59.656Z,0.00
2023-05-02T00:25:59.632Z,0.00
2023-05-02T00:26:59.626Z,0.00
2023-05-02T00:27:59.615Z,0.00
2023-05-02T00:28:59.596Z,0.00
2023-05-02T00:29:59.816Z,0.00
2023-05-02T00:30:59.652Z,0.00
2023-05-02T00:31:59.561Z,0.00
2023-05-02T00:32:59.559Z,0.00
2023-05-02T00:33:59.526Z,0.00
2023-05-02T00:34:59.533Z,0.00
2023-05-02T00:35:59.510Z,0.00
2023-05-02T00:36:59.493Z,0.00
2023-05-02T00:37:59.479Z,0.00
2023-05-02T00:38:59.476Z,0.00
2023-05-02T00:39:59.600Z,0.00
2023-05-02T00:40:59.438Z,0.00
2023-05-02T00:41:59.429Z,0.00
2023-05-02T00:42:59.420Z,0.00
2023-05-02T00:43:59.405Z,0.00
2023-05-02T00:44:59.389Z,0.00
2023-05-02T00:45:59.448Z,0.00
2023-05-02T00:46:59.341Z,0.00
2023-05-02T00:47:59.367Z,0.00
2023-05-02T00:48:59.328Z,0.00
2023-05-02T00:49:59.432Z,0.00
2023-05-02T00:50:59.481Z,0.00
2023-05-02T00:51:59.292Z,0.00
2023-05-02T00:52:58.095Z,0.00
2023-05-02T00:53:59.265Z,0.00
2023-05-02T00:54:59.281Z,0.00
2023-05-02T00:55:59.251Z,0.00
2023-05-02T00:56:59.255Z,0.00
2023-05-02T00:57:59.213Z,0.00
2023-05-02T00:58:59.195Z,0.00
2023-05-02T00:59:59.308Z,0.00
2023-05-02T01:00:59.191Z,0.00
2023-05-02T01:01:59.192Z,0.00
2023-05-02T01:02:59.239Z,0.00
2023-05-02T01:03:59.336Z,0.00
2023-05-02T01:04:59.105Z,4.00
2023-05-02T01:05:59.139Z,4.00
2023-05-02T01:06:59.087Z,4.00
2023-05-02T01:07:59.073Z,4.00
2023-05-02T01:08:58.551Z,4.00
2023-05-02T01:09:58.392Z,4.00
2023-05-02T01:10:59.034Z,4.00
2023-05-02T01:11:59.031Z,4.00
2023-05-02T01:12:59.063Z,4.00
2023-05-02T01:13:59.002Z,4.00
2023-05-02T01:14:58.048Z,4.00
2023-05-02T01:15:59.009Z,4.00
2023-05-02T01:16:58.959Z,4.00
2023-05-02T01:17:58.978Z,4.00
2023-05-02T01:18:58.950Z,4.00
2023-05-02T01:19:59.145Z,4.00
2023-05-02T01:20:58.918Z,4.00
2023-05-02T01:21:58.894Z,4.00
2023-05-02T01:22:58.876Z,4.00
2023-05-02T01:23:58.864Z,4.00
2023-05-02T01:24:58.843Z,4.00
2023-05-02T01:25:58.854Z,4.00
2023-05-02T01:26:58.812Z,4.00
2023-05-02T01:27:58.800Z,4.00
2023-05-02T01:28:58.798Z,4.00
2023-05-02T01:29:59.226Z,4.00
2023-05-02T01:30:58.771Z,4.00
2023-05-02T01:31:58.897Z,4.00
2023-05-02T01:32:58.765Z,4.00
2023-05-02T01:33:58.730Z,4.00
2023-05-02T01:34:58.719Z,4.00
2023-05-02T01:35:58.712Z,4.00
2023-05-02T01:36:58.694Z,4.00
2023-05-02T01:37:58.702Z,4.00
2023-05-02T01:38:58.657Z,4.00
2023-05-02T01:39:59.031Z,4.00
2023-05-02T01:40:58.668Z,4.00
2023-05-02T01:41:58.671Z,4.00
2023-05-02T01:42:58.642Z,4.00
2023-05-02T01:43:58.741Z,4.00
2023-05-02T01:44:58.647Z,4.00
2023-05-02T01:45:58.582Z,4.00
2023-05-02T01:46:58.570Z,4.00
2023-05-02T01:47:58.566Z,4.00
2023-05-02T01:48:58.521Z,4.00
2023-05-02T01:49:58.805Z,4.00
2023-05-02T01:50:58.507Z,4.00
2023-05-02T01:51:58.486Z,4.00
2023-05-02T01:52:57.369Z,4.00
2023-05-02T01:53:58.501Z,4.00
2023-05-02T01:54:57.387Z,4.00
2023-05-02T01:55:58.435Z,4.00
2023-05-02T01:56:58.422Z,4.00
2023-05-02T01:57:58.430Z,4.00
2023-05-02T01:58:58.410Z,4.00
2023-05-02T01:59:57.788Z,4.00
2023-05-02T02:00:57.441Z,4.00
2023-05-02T02:01:57.431Z,4.00
2023-05-02T02:02:57.461Z,4.00
2023-05-02T02:03:58.393Z,4.00
2023-05-02T02:04:57.472Z,4.00
2023-05-02T02:05:58.322Z,4.00
2023-05-02T02:06:58.289Z,4.00
2023-05-02T02:07:58.263Z,4.00
2023-05-02T02:08:58.259Z,4.00
2023-05-02T02:09:58.373Z,4.00
2023-05-02T02:10:56.798Z,4.00
2023-05-02T02:11:58.219Z,4.00
2023-05-02T02:12:57.400Z,4.00
2023-05-02T02:13:58.187Z,4.00
2023-05-02T02:14:58.169Z,4.00
2023-05-02T02:15:57.415Z,4.00
2023-05-02T02:16:58.187Z,4.00
2023-05-02T02:17:58.185Z,4.00
2023-05-02T02:18:57.447Z,4.00
2023-05-02T02:19:58.301Z,4.00
2023-05-02T02:20:58.095Z,4.00
2023-05-02T02:21:58.110Z,4.00
2023-05-02T02:22:58.080Z,4.00
2023-05-02T02:23:58.054Z,4.00
2023-05-02T02:24:58.041Z,4.00
2023-05-02T02:25:58.032Z,4.00
2023-05-02T02:26:56.889Z,0.00
2023-05-02T02:27:58.010Z,0.00
2023-05-02T02:28:56.979Z,0.00
2023-05-02T02:29:58.107Z,4.00
2023-05-02T02:30:58.018Z,0.00
2023-05-02T02:31:57.951Z,0.00
2023-05-02T02:32:58.023Z,0.00
2023-05-02T02:33:57.929Z,0.00
2023-05-02T02:34:57.915Z,0.00
2023-05-02T02:35:57.898Z,0.00
2023-05-02T02:36:57.889Z,0.00
2023-05-02T02:37:57.869Z,0.00
2023-05-02T02:38:57.862Z,0.00
2023-05-02T02:39:58.092Z,0.00
2023-05-02T02:40:57.835Z,0.00
2023-05-02T02:41:57.822Z,0.00
2023-05-02T02:42:57.801Z,0.00
2023-05-02T02:43:57.784Z,0.00
2023-05-02T02:44:57.763Z,0.00
2023-05-02T02:45:57.808Z,0.00
2023-05-02T02:46:57.767Z,0.00
2023-05-02T02:47:57.789Z,0.00
2023-05-02T02:48:57.714Z,0.00
2023-05-02T02:49:58.001Z,0.00
2023-05-02T02:50:56.232Z,0.00
2023-05-02T02:51:57.849Z,0.00
2023-05-02T02:52:56.442Z,0.00
2023-05-02T02:53:57.660Z,0.00
2023-05-02T02:54:57.636Z,0.00
2023-05-02T02:55:57.606Z,0.00
2023-05-02T02:56:57.607Z,0.00
2023-05-02T02:57:57.610Z,0.00
2023-05-02T02:58:57.575Z,0.00
2023-05-02T02:59:57.914Z,0.00
2023-05-02T03:00:56.172Z,0.00
2023-05-02T03:01:57.645Z,0.00
2023-05-02T03:02:57.594Z,0.00
2023-05-02T03:03:57.576Z,0.00
2023-05-02T03:04:57.507Z,0.00
2023-05-02T03:05:57.489Z,0.00
2023-05-02T03:06:57.484Z,0.00
2023-05-02T03:07:57.474Z,0.00
2023-05-02T03:08:57.459Z,0.00
2023-05-02T03:09:57.778Z,0.00
2023-05-02T03:10:57.430Z,0.00
2023-05-02T03:11:56.138Z,0.00
2023-05-02T03:12:56.462Z,0.00
2023-05-02T03:13:57.381Z,0.00
2023-05-02T03:14:57.391Z,0.00
2023-05-02T03:15:57.394Z,0.00
2023-05-02T03:16:57.371Z,0.00
2023-05-02T03:17:57.393Z,0.00
2023-05-02T03:18:57.312Z,4.00
2023-05-02T03:19:56.202Z,0.00
2023-05-02T03:20:57.293Z,0.00
2023-05-02T03:21:57.277Z,0.00
2023-05-02T03:22:57.269Z,0.00
2023-05-02T03:23:57.245Z,0.00
2023-05-02T03:24:57.237Z,0.00
2023-05-02T03:25:57.237Z,0.00
2023-05-02T03:26:57.201Z,0.00
2023-05-02T03:27:56.156Z,4.00
2023-05-02T03:28:57.196Z,4.00
2023-05-02T03:29:57.330Z,4.00
2023-05-02T03:30:55.708Z,4.00
2023-05-02T03:31:56.230Z,4.00
2023-05-02T03:32:57.231Z,0.00
2023-05-02T03:33:57.106Z,0.00
2023-05-02T03:34:57.121Z,4.00
2023-05-02T03:35:56.205Z,4.00
2023-05-02T03:36:57.086Z,4.00
2023-05-02T03:37:57.076Z,8.00
2023-05-02T03:38:56.235Z,4.00
2023-05-02T03:39:57.056Z,4.00
2023-05-02T03:40:57.021Z,8.00
2023-05-02T03:41:57.015Z,4.00
2023-05-02T03:42:57.003Z,8.00
2023-05-02T03:43:57.005Z,8.00
2023-05-02T03:44:56.986Z,12.00
2023-05-02T03:45:56.965Z,12.00
2023-05-02T03:46:55.621Z,16.00
2023-05-02T03:47:57.026Z,16.00
2023-05-02T03:48:56.919Z,20.00
2023-05-02T03:49:56.975Z,24.00
2023-05-02T03:50:56.895Z,28.00
2023-05-02T03:51:55.432Z,28.00
2023-05-02T03:52:56.892Z,32.00
2023-05-02T03:53:56.883Z,40.00
2023-05-02T03:54:56.845Z,44.00
2023-05-02T03:55:56.832Z,52.00
2023-05-02T03:56:56.809Z,60.00
2023-05-02T03:57:56.815Z,76.00
2023-05-02T03:58:56.789Z,88.00
2023-05-02T03:59:55.322Z,100.00
2023-05-02T04:00:56.752Z,116.00
2023-05-02T04:01:56.769Z,128.00
2023-05-02T04:02:56.820Z,148.00
2023-05-02T04:03:56.866Z,164.00
2023-05-02T04:04:56.703Z,184.00
2023-05-02T04:05:56.691Z,208.00
2023-05-02T04:06:56.757Z,232.00
2023-05-02T04:07:56.685Z,260.00
2023-05-02T04:08:56.653Z,292.00
2023-05-02T04:09:56.647Z,328.00
2023-05-02T04:10:56.629Z,364.00
2023-05-02T04:11:56.661Z,408.00
2023-05-02T04:12:56.608Z,452.00
2023-05-02T04:13:56.588Z,488.00
2023-05-02T04:14:56.588Z,528.00
2023-05-02T04:15:55.593Z,564.00
2023-05-02T04:16:55.284Z,600.00
2023-05-02T04:17:56.666Z,632.00
2023-05-02T04:18:56.564Z,672.00
2023-05-02T04:19:56.573Z,728.00
2023-05-02T04:20:55.593Z,788.00
2023-05-02T04:21:56.498Z,840.00
2023-05-02T04:22:56.517Z,896.00
2023-05-02T04:23:55.094Z,944.00
2023-05-02T04:24:56.461Z,996.00
2023-05-02T04:25:56.474Z,1052.00
2023-05-02T04:26:55.235Z,1116.00
2023-05-02T04:27:56.417Z,1180.00
2023-05-02T04:28:55.239Z,1244.00
2023-05-02T04:29:56.369Z,1312.00
2023-05-02T04:30:56.465Z,1376.00
2023-05-02T04:31:56.350Z,1440.00
2023-05-02T04:32:56.409Z,1504.00
2023-05-02T04:33:56.325Z,1568.00
2023-05-02T04:34:56.314Z,1636.00
2023-05-02T04:35:56.298Z,1712.00
2023-05-02T04:36:55.600Z,1788.00
2023-05-02T04:37:56.469Z,1868.00
2023-05-02T04:38:56.253Z,1948.00
2023-05-02T04:39:56.365Z,2028.00
2023-05-02T04:40:56.246Z,2104.00
2023-05-02T04:41:56.230Z,2172.00
2023-05-02T04:42:55.523Z,2244.00
2023-05-02T04:43:56.197Z,2324.00
2023-05-02T04:44:56.172Z,2400.00
2023-05-02T04:45:56.209Z,2472.00
2023-05-02T04:46:56.145Z,2544.00
2023-05-02T04:47:56.199Z,2616.00
2023-05-02T04:48:56.131Z,2692.00
2023-05-02T04:49:56.117Z,2768.00
2023-05-02T04:50:56.108Z,2840.00
2023-05-02T04:51:56.080Z,2908.00
2023-05-02T04:52:56.079Z,2976.00
2023-05-02T04:53:56.065Z,3048.00
2023-05-02T04:54:56.036Z,3136.00
2023-05-02T04:55:54.594Z,3240.00
2023-05-02T04:56:56.018Z,3344.00
2023-05-02T04:57:56.023Z,3440.00
2023-05-02T04:58:55.989Z,3504.00
2023-05-02T04:59:56.230Z,3564.00
2023-05-02T05:00:55.959Z,3656.00
2023-05-02T05:01:56.006Z,3764.00
2023-05-02T05:02:56.024Z,3892.00
2023-05-02T05:03:56.050Z,4020.00
2023-05-02T05:04:55.956Z,4160.00
2023-05-02T05:05:55.901Z,4292.00
2023-05-02T05:06:56.065Z,4392.00
2023-05-02T05:07:55.903Z,4484.00
2023-05-02T05:08:55.863Z,4588.00
2023-05-02T05:09:55.852Z,4676.00
2023-05-02T05:10:55.846Z,4724.00
2023-05-02T05:11:55.828Z,4780.00
2023-05-02T05:12:55.829Z,4864.00
2023-05-02T05:13:55.805Z,4968.00
2023-05-02T05:14:55.770Z,5116.00
2023-05-02T05:15:55.820Z,5268.00
2023-05-02T05:16:55.752Z,5380.00
2023-05-02T05:17:55.762Z,5484.00
2023-05-02T05:18:55.710Z,5600.00
2023-05-02T05:19:55.719Z,5648.00
2023-05-02T05:20:55.700Z,5676.00
2023-05-02T05:21:55.679Z,5708.00
2023-05-02T05:22:55.679Z,5760.00
2023-05-02T05:23:55.660Z,5840.00
2023-05-02T05:24:55.633Z,5972.00
2023-05-02T05:25:55.631Z,6104.00
2023-05-02T05:26:55.617Z,6244.00
2023-05-02T05:27:55.616Z,6356.00
2023-05-02T05:28:55.592Z,6452.00
2023-05-02T05:29:55.575Z,6568.00
2023-05-02T05:30:55.564Z,6648.00
2023-05-02T05:31:55.603Z,6704.00
2023-05-02T05:32:55.575Z,6792.00
2023-05-02T05:33:55.612Z,6908.00
2023-05-02T05:34:55.528Z,6956.00
2023-05-02T05:35:55.501Z,6988.00
2023-05-02T05:36:55.502Z,7052.00
2023-05-02T05:37:55.463Z,7152.00
2023-05-02T05:38:55.473Z,7208.00
2023-05-02T05:39:55.470Z,7268.00
2023-05-02T05:40:54.372Z,7360.00
2023-05-02T05:41:54.372Z,7484.00
2023-05-02T05:42:54.278Z,7552.00
2023-05-02T05:43:55.402Z,7608.00
2023-05-02T05:44:55.377Z,7688.00
2023-05-02T05:45:55.350Z,7796.00
2023-05-02T05:46:55.422Z,7916.00
2023-05-02T05:47:55.362Z,8000.00
2023-05-02T05:48:54.279Z,8044.00
2023-05-02T05:49:55.339Z,8096.00
2023-05-02T05:50:54.785Z,8152.00
2023-05-02T05:51:54.318Z,8228.00
2023-05-02T05:52:55.277Z,8264.00
2023-05-02T05:53:53.806Z,8328.00
2023-05-02T05:54:55.241Z,8416.00
2023-05-02T05:55:55.236Z,8496.00
2023-05-02T05:56:55.215Z,8476.00
2023-05-02T05:57:55.200Z,8392.00
2023-05-02T05:58:55.205Z,8372.00
2023-05-02T05:59:55.179Z,8420.00
2023-05-02T06:00:55.159Z,8524.00
2023-05-02T06:01:55.143Z,8588.00
2023-05-02T06:02:55.226Z,8704.00
2023-05-02T06:03:55.152Z,8876.00
2023-05-02T06:04:55.147Z,8960.00
2023-05-02T06:05:55.095Z,8980.00
2023-05-02T06:06:53.816Z,9096.00
2023-05-02T06:07:55.057Z,9192.00
2023-05-02T06:08:55.060Z,9332.00
2023-05-02T06:09:55.046Z,9480.00
2023-05-02T06:10:55.027Z,9588.00
2023-05-02T06:11:55.241Z,9632.00
2023-05-02T06:12:55.012Z,9656.00
2023-05-02T06:13:55.149Z,9732.00
2023-05-02T06:14:54.977Z,9868.00
2023-05-02T06:15:54.994Z,10028.00
2023-05-02T06:16:54.945Z,10208.00
2023-05-02T06:17:55.021Z,10364.00
2023-05-02T06:18:54.926Z,10512.00
2023-05-02T06:19:54.909Z,10612.00
2023-05-02T06:20:54.885Z,10596.00
2023-05-02T06:21:54.894Z,10444.00
2023-05-02T06:22:54.854Z,10764.00
2023-05-02T06:23:54.857Z,10996.00
2023-05-02T06:24:54.833Z,11328.00
2023-05-02T06:25:54.817Z,11600.00
2023-05-02T06:26:54.814Z,11724.00
2023-05-02T06:27:54.803Z,11848.00
2023-05-02T06:28:54.791Z,11996.00
2023-05-02T06:29:54.278Z,12188.00
2023-05-02T06:30:54.742Z,14400.00
2023-05-02T06:31:54.754Z,17504.00
2023-05-02T06:32:54.757Z,18944.00
2023-05-02T06:33:53.665Z,19552.00
2023-05-02T06:34:54.701Z,20672.00
2023-05-02T06:35:54.681Z,21344.00
2023-05-02T06:36:53.740Z,20736.00
2023-05-02T06:37:54.670Z,19936.00
2023-05-02T06:38:53.200Z,19904.00
2023-05-02T06:39:54.675Z,19968.00
2023-05-02T06:40:54.629Z,20160.00
2023-05-02T06:41:54.604Z,21280.00
2023-05-02T06:42:54.585Z,21216.00
2023-05-02T06:43:54.592Z,21888.00
2023-05-02T06:44:54.575Z,21536.00
2023-05-02T06:45:54.577Z,22272.00
2023-05-02T06:46:53.384Z,23200.00
2023-05-02T06:47:54.585Z,26336.00
2023-05-02T06:48:54.507Z,26240.00
2023-05-02T06:49:53.473Z,24096.00
2023-05-02T06:50:54.468Z,25152.00
2023-05-02T06:51:53.963Z,20768.00
2023-05-02T06:52:54.444Z,18304.00
2023-05-02T06:53:54.475Z,17220.00
2023-05-02T06:54:54.417Z,19040.00
2023-05-02T06:55:53.211Z,22688.00
2023-05-02T06:56:54.392Z,24288.00
2023-05-02T06:57:53.639Z,25120.00
2023-05-02T06:58:54.433Z,27360.00
2023-05-02T06:59:53.623Z,28416.00
2023-05-02T07:00:54.388Z,27744.00
2023-05-02T07:01:54.316Z,27104.00
2023-05-02T07:02:54.325Z,26656.00
2023-05-02T07:03:54.351Z,25568.00
2023-05-02T07:04:54.290Z,23776.00
2023-05-02T07:05:54.270Z,21888.00
2023-05-02T07:06:54.308Z,20992.00
2023-05-02T07:07:54.243Z,21792.00
2023-05-02T07:08:54.410Z,23104.00
2023-05-02T07:09:54.253Z,25856.00
2023-05-02T07:10:54.202Z,29536.00
2023-05-02T07:11:54.932Z,32544.00
2023-05-02T07:12:54.172Z,43616.00
2023-05-02T07:13:54.176Z,41696.00
2023-05-02T07:14:54.155Z,47296.00
2023-05-02T07:15:54.154Z,45920.00
2023-05-02T07:16:54.141Z,49312.00
2023-05-02T07:17:54.200Z,59680.00
2023-05-02T07:18:54.095Z,64320.00
2023-05-02T07:19:54.075Z,61920.00
2023-05-02T07:20:54.066Z,53632.00
2023-05-02T07:21:54.055Z,45824.00
2023-05-02T07:22:54.029Z,42144.00
2023-05-02T07:23:54.034Z,43680.00
2023-05-02T07:24:53.992Z,35520.00
2023-05-02T07:25:53.990Z,38272.00
2023-05-02T07:26:53.994Z,32640.00
2023-05-02T07:27:53.953Z,30240.00
2023-05-02T07:28:53.980Z,30656.00
2023-05-02T07:29:53.941Z,29376.00
2023-05-02T07:30:53.923Z,29696.00
2023-05-02T07:31:53.963Z,29408.00
2023-05-02T07:32:53.983Z,28864.00
2023-05-02T07:33:53.898Z,27680.00
2023-05-02T07:34:53.883Z,26368.00
2023-05-02T07:35:53.850Z,25952.00
2023-05-02T07:36:53.827Z,26240.00
2023-05-02T07:37:53.836Z,28416.00
2023-05-02T07:38:53.811Z,30688.00
2023-05-02T07:39:53.796Z,32384.00
2023-05-02T07:40:53.786Z,33408.00
2023-05-02T07:41:53.781Z,34496.00
2023-05-02T07:42:53.768Z,35968.00
2023-05-02T07:43:53.750Z,35584.00
2023-05-02T07:44:53.740Z,34272.00
2023-05-02T07:45:53.733Z,33312.00
2023-05-02T07:46:53.706Z,32736.00
2023-05-02T07:47:53.723Z,33216.00
2023-05-02T07:48:53.674Z,42752.00
2023-05-02T07:49:53.652Z,40576.00
2023-05-02T07:50:53.653Z,35488.00
2023-05-02T07:51:53.640Z,34144.00
2023-05-02T07:52:53.621Z,30240.00
2023-05-02T07:53:53.624Z,28480.00
2023-05-02T07:54:53.592Z,27264.00
2023-05-02T07:55:53.574Z,26336.00
2023-05-02T07:56:53.578Z,25536.00
2023-05-02T07:57:53.590Z,31968.00
2023-05-02T07:58:52.324Z,24608.00
2023-05-02T07:59:52.415Z,25280.00
2023-05-02T08:00:53.523Z,25824.00
2023-05-02T08:01:52.342Z,26592.00
2023-05-02T08:02:53.577Z,29952.00
2023-05-02T08:03:52.600Z,29728.00
2023-05-02T08:04:52.988Z,28160.00
2023-05-02T08:05:52.334Z,27904.00
2023-05-02T08:06:53.472Z,32032.00
2023-05-02T08:07:53.410Z,39680.00
2023-05-02T08:08:53.400Z,31840.00
2023-05-02T08:09:53.386Z,44032.00
2023-05-02T08:10:53.397Z,27008.00
2023-05-02T08:11:53.385Z,26016.00
2023-05-02T08:12:53.362Z,28672.00
2023-05-02T08:13:53.329Z,41696.00
2023-05-02T08:14:53.322Z,74624.00
2023-05-02T08:15:53.348Z,33312.00
2023-05-02T08:16:53.346Z,31456.00
2023-05-02T08:17:53.337Z,31968.00
2023-05-02T08:18:53.271Z,33920.00
2023-05-02T08:19:53.253Z,33056.00
2023-05-02T08:20:53.264Z,32192.00
2023-05-02T08:21:53.379Z,32672.00
2023-05-02T08:22:53.212Z,33248.00
2023-05-02T08:23:53.362Z,33376.00
2023-05-02T08:24:53.190Z,32288.00
2023-05-02T08:25:53.196Z,31648.00
2023-05-02T08:26:53.162Z,31520.00
2023-05-02T08:27:53.132Z,31936.00
2023-05-02T08:28:53.149Z,34336.00
2023-05-02T08:29:51.759Z,46336.00
2023-05-02T08:30:53.104Z,35904.00
2023-05-02T08:31:53.106Z,38528.00
2023-05-02T08:32:53.108Z,49120.00
2023-05-02T08:33:53.064Z,78752.00
2023-05-02T08:34:53.058Z,78912.00
2023-05-02T08:35:53.033Z,60064.00
2023-05-02T08:36:53.015Z,52576.00
2023-05-02T08:37:53.015Z,34656.00
2023-05-02T08:38:52.986Z,32864.00
2023-05-02T08:39:52.980Z,32480.00
2023-05-02T08:40:52.992Z,32960.00
2023-05-02T08:41:52.949Z,33888.00
2023-05-02T08:42:52.950Z,33440.00
2023-05-02T08:43:52.922Z,32960.00
2023-05-02T08:44:52.941Z,32832.00
2023-05-02T08:45:52.889Z,32096.00
2023-05-02T08:46:52.949Z,31552.00
2023-05-02T08:47:52.895Z,31200.00
2023-05-02T08:48:52.847Z,33056.00
2023-05-02T08:49:52.840Z,31520.00
2023-05-02T08:50:52.826Z,30144.00
2023-05-02T08:51:52.811Z,29024.00
2023-05-02T08:52:52.804Z,27968.00
2023-05-02T08:53:52.788Z,27520.00
2023-05-02T08:54:52.269Z,27840.00
2023-05-02T08:55:52.750Z,28320.00
2023-05-02T08:56:52.744Z,28416.00
2023-05-02T08:57:52.741Z,28544.00
2023-05-02T08:58:52.730Z,28640.00
2023-05-02T08:59:52.731Z,28992.00
2023-05-02T09:00:52.728Z,29088.00
2023-05-02T09:01:52.689Z,28512.00
2023-05-02T09:02:52.740Z,27744.00
2023-05-02T09:03:52.758Z,26912.00
2023-05-02T09:04:51.533Z,25728.00
2023-05-02T09:05:51.440Z,24224.00
2023-05-02T09:06:52.693Z,22368.00
2023-05-02T09:07:51.574Z,20320.00
2023-05-02T09:08:52.642Z,18272.00
2023-05-02T09:09:52.569Z,16768.00
2023-05-02T09:10:52.556Z,15592.00
2023-05-02T09:11:52.535Z,14896.00
2023-05-02T09:12:52.515Z,14452.00
2023-05-02T09:13:51.761Z,14112.00
2023-05-02T09:14:52.503Z,13836.00
2023-05-02T09:15:52.491Z,13560.00
2023-05-02T09:16:52.524Z,13356.00
2023-05-02T09:17:52.508Z,13232.00
2023-05-02T09:18:52.432Z,13304.00
2023-05-02T09:19:52.443Z,13560.00
2023-05-02T09:20:52.405Z,14084.00
2023-05-02T09:21:52.393Z,14840.00
2023-05-02T09:22:52.398Z,15548.00
2023-05-02T09:23:52.374Z,16204.00
2023-05-02T09:24:52.362Z,16896.00
2023-05-02T09:25:52.352Z,17184.00
2023-05-02T09:26:52.345Z,17408.00
2023-05-02T09:27:52.320Z,17536.00
2023-05-02T09:28:52.298Z,17696.00
2023-05-02T09:29:52.282Z,17632.00
2023-05-02T09:30:52.312Z,17728.00
2023-05-02T09:31:56.202Z,17824.00
2023-05-02T09:32:52.310Z,17824.00
2023-05-02T09:33:50.848Z,17952.00
2023-05-02T09:34:52.222Z,17984.00
2023-05-02T09:35:52.208Z,18208.00
2023-05-02T09:36:52.358Z,18432.00
2023-05-02T09:37:52.180Z,18528.00
2023-05-02T09:38:52.160Z,22464.00
2023-05-02T09:40:52.134Z,17856.00
2023-05-02T09:41:52.116Z,17664.00
2023-05-02T09:42:52.121Z,17472.00
2023-05-02T09:43:52.098Z,17184.00
2023-05-02T09:44:52.084Z,17024.00
2023-05-02T09:45:52.074Z,17120.00
2023-05-02T09:46:52.070Z,17312.00
2023-05-02T09:47:50.960Z,17472.00
2023-05-02T09:48:52.015Z,17632.00
2023-05-02T09:49:52.018Z,17856.00
2023-05-02T09:50:51.994Z,18048.00
2023-05-02T09:51:52.002Z,17856.00
2023-05-02T09:52:51.959Z,17344.00
2023-05-02T09:53:51.962Z,16736.00
2023-05-02T09:54:51.950Z,15884.00
2023-05-02T09:55:51.914Z,14708.00
2023-05-02T09:56:51.906Z,13756.00
2023-05-02T09:57:51.880Z,13172.00
2023-05-02T09:58:51.874Z,12968.00
2023-05-02T09:59:51.878Z,12828.00
2023-05-02T10:00:51.852Z,12544.00
2023-05-02T10:01:52.030Z,12416.00
2023-05-02T10:02:51.866Z,12444.00
2023-05-02T10:03:51.826Z,12316.00
2023-05-02T10:04:51.827Z,12200.00
2023-05-02T10:05:51.784Z,12440.00
2023-05-02T10:06:51.818Z,13096.00
2023-05-02T10:07:51.764Z,13680.00
2023-05-02T10:08:51.753Z,14452.00
2023-05-02T10:09:51.770Z,15132.00
2023-05-02T10:10:51.223Z,15620.00
2023-05-02T10:11:51.695Z,15624.00
2023-05-02T10:12:51.694Z,15704.00
2023-05-02T10:13:51.681Z,15844.00
2023-05-02T10:14:51.672Z,15820.00
2023-05-02T10:15:51.666Z,15572.00
2023-05-02T10:16:51.630Z,15432.00
2023-05-02T10:17:51.634Z,15296.00
2023-05-02T10:18:51.611Z,15224.00
2023-05-02T10:19:51.609Z,15176.00
2023-05-02T10:20:50.444Z,15280.00
2023-05-02T10:21:51.563Z,15584.00
2023-05-02T10:22:51.551Z,16544.00
2023-05-02T10:23:51.531Z,17504.00
2023-05-02T10:24:51.525Z,18368.00
2023-05-02T10:25:51.523Z,18848.00
2023-05-02T10:26:51.510Z,18560.00
2023-05-02T10:27:51.481Z,18208.00
2023-05-02T10:28:51.487Z,18432.00
2023-05-02T10:29:51.462Z,18816.00
2023-05-02T10:30:51.451Z,19488.00
2023-05-02T10:31:51.492Z,20160.00
2023-05-02T10:32:51.449Z,20608.00
2023-05-02T10:33:51.401Z,21056.00
2023-05-02T10:34:51.559Z,21472.00
2023-05-02T10:35:51.386Z,21952.00
2023-05-02T10:36:51.354Z,22592.00
2023-05-02T10:37:51.338Z,23232.00
2023-05-02T10:38:51.333Z,23424.00
2023-05-02T10:39:51.319Z,23072.00
2023-05-02T10:40:51.309Z,23264.00
2023-05-02T10:41:51.285Z,24448.00
2023-05-02T10:42:51.276Z,26240.00
2023-05-02T10:43:51.263Z,28640.00
2023-05-02T10:44:51.288Z,30976.00
2023-05-02T10:45:51.225Z,34016.00
2023-05-02T10:46:51.274Z,48672.00
2023-05-02T10:47:51.240Z,40832.00
2023-05-02T10:48:51.178Z,42592.00
2023-05-02T10:49:51.188Z,49120.00
2023-05-02T10:50:51.196Z,56096.00
2023-05-02T10:51:51.151Z,60800.00
2023-05-02T10:52:51.134Z,79776.00
2023-05-02T10:53:51.124Z,124672.00
2023-05-02T10:54:51.098Z,122176.00
2023-05-02T10:55:51.098Z,115776.00
2023-05-02T10:56:51.073Z,112000.00
2023-05-02T10:57:51.076Z,108128.00
2023-05-02T10:58:51.064Z,84864.00
2023-05-02T10:59:51.045Z,30688.00
2023-05-02T11:00:51.097Z,26624.00
2023-05-02T11:01:51.083Z,24288.00
2023-05-02T11:02:51.135Z,23360.00
2023-05-02T11:03:50.998Z,22688.00
2023-05-02T11:04:50.993Z,22080.00
2023-05-02T11:05:50.977Z,22240.00
2023-05-02T11:06:50.990Z,22592.00
2023-05-02T11:07:50.937Z,24064.00
2023-05-02T11:08:50.916Z,26240.00
2023-05-02T11:09:50.904Z,30912.00
2023-05-02T11:10:50.901Z,102464.00
2023-05-02T11:11:50.907Z,101888.00
2023-05-02T11:12:50.956Z,102624.00
2023-05-02T11:13:50.924Z,104960.00
2023-05-02T11:14:50.916Z,105664.00
2023-05-02T11:15:50.882Z,107392.00
2023-05-02T11:16:50.960Z,110112.00
2023-05-02T11:17:50.863Z,115744.00
2023-05-02T11:18:50.811Z,118976.00
2023-05-02T11:19:50.845Z,119904.00
2023-05-02T11:20:49.440Z,44896.00
2023-05-02T11:21:50.754Z,40512.00
2023-05-02T11:22:49.492Z,39296.00
2023-05-02T11:23:50.716Z,39392.00
2023-05-02T11:24:50.702Z,39904.00
2023-05-02T11:25:50.710Z,40288.00
2023-05-02T11:26:49.596Z,40544.00
2023-05-02T11:27:50.666Z,39616.00
2023-05-02T11:28:49.678Z,38464.00
2023-05-02T11:29:49.689Z,40544.00
2023-05-02T11:30:50.632Z,38848.00
2023-05-02T11:31:50.639Z,49472.00
2023-05-02T11:32:50.637Z,37952.00
2023-05-02T11:33:49.802Z,36288.00
2023-05-02T11:34:50.563Z,33504.00
2023-05-02T11:35:50.556Z,30112.00
2023-05-02T11:36:49.831Z,28672.00
2023-05-02T11:37:50.539Z,28256.00
2023-05-02T11:38:50.505Z,29216.00
2023-05-02T11:39:50.511Z,29312.00
2023-05-02T11:40:50.486Z,30240.00
2023-05-02T11:41:50.466Z,46784.00
2023-05-02T11:42:50.457Z,84160.00
2023-05-02T11:43:50.447Z,100672.00
2023-05-02T11:44:50.431Z,98880.00
2023-05-02T11:45:50.490Z,93184.00
2023-05-02T11:46:50.519Z,91904.00
2023-05-02T11:47:50.451Z,94336.00
2023-05-02T11:48:50.372Z,94848.00
2023-05-02T11:49:50.364Z,94752.00
2023-05-02T11:50:50.871Z,94112.00
2023-05-02T11:51:50.347Z,92928.00
2023-05-02T11:52:50.318Z,93632.00
2023-05-02T11:53:50.326Z,93280.00
2023-05-02T11:54:48.871Z,91808.00
2023-05-02T11:55:50.308Z,91136.00
2023-05-02T11:56:50.268Z,90880.00
2023-05-02T11:57:50.254Z,91520.00
2023-05-02T11:58:50.247Z,92160.00
2023-05-02T11:59:50.235Z,92384.00
2023-05-02T12:00:48.881Z,93120.00
2023-05-02T12:01:50.219Z,95072.00
2023-05-02T12:02:50.282Z,94144.00
2023-05-02T12:03:50.294Z,96256.00
2023-05-02T12:04:50.203Z,96224.00
2023-05-02T12:05:50.229Z,97632.00
2023-05-02T12:06:50.219Z,96160.00
2023-05-02T12:07:50.158Z,31840.00
2023-05-02T12:08:48.819Z,95840.00
2023-05-02T12:09:50.128Z,95776.00
2023-05-02T12:10:50.111Z,96448.00
2023-05-02T12:11:50.097Z,96032.00
2023-05-02T12:12:50.078Z,96800.00
2023-05-02T12:13:50.664Z,97344.00
2023-05-02T12:14:50.066Z,96224.00
2023-05-02T12:15:50.060Z,93920.00
2023-05-02T12:16:50.076Z,92864.00